createdAt,value
2018-08-09T00:04:27.118Z,99973.91
2018-08-09T00:09:31.002Z,99983.68
2018-08-09T00:14:34.878Z,99994.13
2018-08-09T00:19:38.845Z,99992.27
2018-08-09T00:24:43.821Z,99990.86
2018-08-09T00:29:47.803Z,99996.80
2018-08-09T00:34:52.546Z,99992.33
2018-08-09T00:39:56.488Z,99998.74
2018-08-09T00:45:00.470Z,99999.47
2018-08-09T00:50:07.519Z,99987.86
2018-08-09T00:55:11.479Z,99990.56
2018-08-09T01:00:15.392Z,99988.83
2018-08-09T01:05:20.025Z,99987.98
2018-08-09T01:10:24.037Z,99984.52
2018-08-09T01:15:27.924Z,99987.41
2018-08-09T01:20:32.285Z,99982.47
2018-08-09T01:25:36.258Z,99992.07
2018-08-09T01:30:40.179Z,99999.75
2018-08-09T01:35:43.987Z,100001.38
2018-08-09T01:40:47.873Z,100001.70
2018-08-09T01:45:51.665Z,100003.35
2018-08-09T01:50:55.533Z,99999.44
2018-08-09T01:55:59.440Z,100009.27
2018-08-09T02:01:03.363Z,100002.66
2018-08-09T02:06:07.355Z,100000.10
2018-08-09T02:11:12.338Z,99998.53
2018-08-09T02:16:16.140Z,100011.94
2018-08-09T02:21:20.053Z,100011.21
2018-08-09T02:26:23.981Z,100016.30
2018-08-09T02:31:27.912Z,100015.61
2018-08-09T02:36:31.707Z,100010.84
2018-08-09T02:41:35.560Z,100009.48
2018-08-09T02:46:39.456Z,100014.55
2018-08-09T02:51:43.544Z,100023.02
2018-08-09T02:56:47.401Z,100018.72
2018-08-09T03:01:51.362Z,100021.95
2018-08-09T03:06:55.515Z,100022.96
2018-08-09T03:11:59.396Z,100035.19
2018-08-09T03:17:03.261Z,100030.08
2018-08-09T03:22:07.394Z,100034.50
2018-08-09T03:27:11.308Z,100027.98
2018-08-09T03:32:15.137Z,100033.08
2018-08-09T03:37:18.921Z,100040.63
2018-08-09T03:42:22.718Z,100044.64
2018-08-09T03:47:26.638Z,100041.36
2018-08-09T03:52:30.467Z,100042.30
2018-08-09T03:57:34.302Z,100045.30
2018-08-09T04:02:38.338Z,100036.73
2018-08-09T04:07:42.375Z,100041.27
2018-08-09T04:12:46.145Z,100044.11
2018-08-09T04:17:50.004Z,100045.27
2018-08-09T04:22:53.873Z,100040.27
2018-08-09T04:27:57.670Z,100052.38
2018-08-09T04:33:01.421Z,100052.27
2018-08-09T04:38:05.451Z,100050.55
2018-08-09T04:43:09.256Z,100061.52
2018-08-09T04:48:13.149Z,100064.97
2018-08-09T04:53:17.002Z,100068.91
2018-08-09T04:58:20.879Z,100061.02
2018-08-09T05:03:24.661Z,100054.89
2018-08-09T05:08:28.487Z,100065.06
2018-08-09T05:13:32.311Z,100080.23
2018-08-09T05:18:36.197Z,100082.19
2018-08-09T05:23:40.043Z,100076.89
2018-08-09T05:28:44.992Z,100069.95
2018-08-09T05:33:48.799Z,100069.60
2018-08-09T05:38:52.664Z,100055.94
2018-08-09T05:43:56.518Z,100055.66
2018-08-09T05:49:00.484Z,100059.85
2018-08-09T05:54:04.354Z,100067.69
2018-08-09T05:59:08.109Z,100067.13
2018-08-09T06:04:11.984Z,100063.23
2018-08-09T06:09:15.783Z,100064.23
2018-08-09T06:14:19.604Z,100070.40
2018-08-09T06:19:23.394Z,100068.19
2018-08-09T06:24:27.242Z,100074.56
2018-08-09T06:29:31.097Z,100079.98
2018-08-09T06:34:35.042Z,100081.23
2018-08-09T06:39:39.043Z,100074.66
2018-08-09T06:44:43.096Z,100073.46
2018-08-09T06:49:51.221Z,100081.37
2018-08-09T06:54:55.098Z,100079.44
2018-08-09T06:59:59.097Z,100066.90
2018-08-09T07:05:09.155Z,100068.00
2018-08-09T07:10:13.177Z,100066.63
2018-08-09T07:15:17.559Z,100068.05
2018-08-09T07:20:21.532Z,100075.06
2018-08-09T07:25:30.944Z,100066.63
2018-08-09T07:30:35.807Z,100063.00
2018-08-09T07:35:39.842Z,100067.49
2018-08-09T07:40:43.831Z,100062.48
2018-08-09T07:45:47.703Z,100064.28
2018-08-09T07:50:51.620Z,100056.36
2018-08-09T07:55:55.533Z,100053.66
2018-08-09T08:00:59.617Z,100047.17
2018-08-09T08:06:03.497Z,100042.30
2018-08-09T08:11:09.368Z,100043.48
2018-08-09T08:16:13.373Z,100039.72
2018-08-09T08:21:17.395Z,100030.83
2018-08-09T08:26:21.352Z,100027.62
2018-08-09T08:31:25.178Z,100025.23
2018-08-09T08:36:29.098Z,100015.22
2018-08-09T08:41:33.198Z,100013.42
2018-08-09T08:46:39.057Z,100014.63
2018-08-09T08:51:44.039Z,100011.63
2018-08-09T08:56:48.082Z,100005.34
2018-08-09T09:01:52.090Z,100007.15
2018-08-09T09:06:56.076Z,99993.79
2018-08-09T09:11:59.986Z,99985.66
2018-08-09T09:17:03.835Z,99973.76
2018-08-09T09:22:07.779Z,99959.86
2018-08-09T09:32:15.242Z,99953.56
2018-08-09T09:37:19.250Z,99947.28
2018-08-09T09:42:24.281Z,99932.00
2018-08-09T09:47:28.253Z,99924.03
2018-08-09T09:52:32.207Z,99915.38
2018-08-09T09:57:36.368Z,99911.45
2018-08-09T10:02:40.353Z,99905.58
2018-08-09T10:07:44.268Z,99893.51
2018-08-09T10:12:51.927Z,99884.50
2018-08-09T10:17:55.829Z,99879.07
2018-08-09T10:23:00.952Z,99870.81
2018-08-09T10:28:05.986Z,99855.86
2018-08-09T10:33:10.124Z,99850.05
2018-08-09T10:38:15.227Z,99855.88
2018-08-09T10:43:19.290Z,99837.37
2018-08-09T10:48:24.161Z,99830.44
2018-08-09T10:53:28.114Z,99829.88
2018-08-09T10:58:32.428Z,99818.20
2018-08-09T11:03:36.534Z,99802.70
2018-08-09T11:08:41.535Z,99789.95
2018-08-09T11:13:46.420Z,99783.75
2018-08-09T11:18:50.514Z,99779.94
2018-08-09T11:23:54.572Z,99774.67
2018-08-09T11:28:58.621Z,99769.74
2018-08-09T11:34:02.608Z,99763.50
2018-08-09T11:39:10.070Z,99771.14
2018-08-09T11:44:14.126Z,99761.08
2018-08-09T11:49:19.005Z,99745.96
2018-08-09T11:54:23.007Z,99737.47
2018-08-09T11:59:27.115Z,99729.52
2018-08-09T12:04:31.176Z,99722.36
2018-08-09T12:09:36.595Z,99715.59
2018-08-09T12:14:40.611Z,99709.14
2018-08-09T12:19:44.600Z,99704.77
2018-08-09T12:24:48.700Z,99685.02
2018-08-09T12:29:53.611Z,99678.26
2018-08-09T12:34:57.698Z,99677.92
2018-08-09T12:40:06.322Z,99665.34
2018-08-09T12:45:12.173Z,99651.58
2018-08-09T12:50:16.323Z,99651.92
2018-08-09T12:55:21.237Z,99654.47
2018-08-09T13:00:25.391Z,99630.86
2018-08-09T13:05:29.474Z,99636.13
2018-08-09T13:10:33.397Z,99626.61
2018-08-09T13:15:37.490Z,99615.09
2018-08-09T13:20:42.072Z,99601.84
2018-08-09T13:25:46.165Z,99605.70
2018-08-09T13:30:50.169Z,99577.00
2018-08-09T13:35:54.096Z,99574.37
2018-08-09T13:40:58.177Z,99566.17
2018-08-09T13:46:02.372Z,99558.05
2018-08-09T13:51:06.696Z,99544.74
2018-08-09T13:56:11.528Z,99540.52
2018-08-09T14:01:15.629Z,99534.94
2018-08-09T14:06:19.661Z,99525.42
2018-08-09T14:11:23.815Z,99516.91
2018-08-09T14:16:27.972Z,99499.56
2018-08-09T14:21:31.959Z,99494.98
2018-08-09T14:26:35.922Z,99497.52
2018-08-09T14:31:40.190Z,99487.04
2018-08-09T14:36:44.207Z,99487.04
2018-08-09T14:41:48.303Z,99481.95
2018-08-09T14:46:52.383Z,99478.72
2018-08-09T14:51:56.541Z,99468.70
2018-08-09T14:57:00.829Z,99466.17
2018-08-09T15:02:04.962Z,99460.04
2018-08-09T15:07:08.980Z,99476.69
2018-08-09T15:12:13.131Z,99469.38
2018-08-09T15:17:17.186Z,99459.91
2018-08-09T15:22:21.410Z,99465.48
2018-08-09T15:27:25.553Z,99469.05
2018-08-09T15:32:29.831Z,99465.34
2018-08-09T15:37:34.070Z,99460.57
2018-08-09T15:42:38.702Z,99453.61
2018-08-09T15:47:43.352Z,99457.19
2018-08-09T15:52:47.596Z,99452.44
2018-08-09T15:57:51.817Z,99444.60
2018-08-09T16:02:55.960Z,99450.21
2018-08-09T16:08:03.889Z,99445.30
2018-08-09T16:13:07.972Z,99440.16
2018-08-09T16:18:12.046Z,99430.08
2018-08-09T16:23:15.973Z,99442.33
2018-08-09T16:28:20.113Z,99440.50
2018-08-09T16:33:24.377Z,99441.04
2018-08-09T16:38:28.456Z,99431.81
2018-08-09T16:43:32.742Z,99427.43
2018-08-09T16:48:37.044Z,99426.40
2018-08-09T16:53:41.188Z,99431.84
2018-08-09T16:58:45.207Z,99424.16
2018-08-09T17:03:50.805Z,99416.36
2018-08-09T17:08:56.405Z,99417.20
2018-08-09T17:14:01.435Z,99404.62
2018-08-09T17:19:05.721Z,99409.70
2018-08-09T17:24:10.910Z,99408.34
2018-08-09T17:29:14.935Z,99408.34
2018-08-09T17:34:18.922Z,99407.31
2018-08-09T17:39:23.107Z,99412.94
2018-08-09T17:44:28.040Z,99403.73
2018-08-09T17:49:38.284Z,99384.53
2018-08-09T17:54:42.539Z,99400.31
2018-08-09T17:59:46.698Z,99395.75
2018-08-09T18:04:52.025Z,99402.23
2018-08-09T18:09:56.919Z,99524.03
2018-08-09T18:15:04.051Z,99539.69
2018-08-09T18:20:11.575Z,99552.80
2018-08-09T18:25:16.473Z,99547.02
2018-08-09T18:30:21.129Z,99552.47
2018-08-09T18:35:25.659Z,99566.25
2018-08-09T18:51:21.026Z,99574.23
2018-08-09T18:56:28.357Z,99579.01
2018-08-09T19:01:34.061Z,99590.03
2018-08-09T19:06:38.934Z,99586.75
2018-08-09T19:11:43.577Z,99595.22
2018-08-09T19:16:48.025Z,99627.03
2018-08-09T19:21:53.991Z,99636.73
2018-08-09T19:26:58.096Z,99642.50
2018-08-09T19:32:02.650Z,99616.79
2018-08-09T19:37:06.750Z,99615.94
2018-08-09T19:42:10.819Z,99622.93
2018-08-09T19:47:14.934Z,99632.98
2018-08-09T19:52:20.452Z,99651.32
2018-08-09T19:57:24.571Z,99654.89
2018-08-09T20:02:29.053Z,99665.94
2018-08-09T20:07:33.980Z,99671.70
2018-08-09T20:12:37.921Z,99687.03
2018-08-09T20:17:42.559Z,99700.33
2018-08-09T20:22:46.536Z,99717.14
2018-08-09T20:27:50.546Z,99741.29
2018-08-09T20:32:54.760Z,99753.53
2018-08-09T20:37:59.489Z,99757.98
2018-08-09T20:43:03.476Z,99767.81
2018-08-09T20:48:07.478Z,99772.57
2018-08-09T20:53:11.692Z,99773.42
2018-08-09T20:58:15.537Z,99790.13
2018-08-09T21:03:19.540Z,99790.13
2018-08-09T21:08:23.619Z,99807.30
2018-08-09T21:13:29.183Z,99815.97
2018-08-09T21:18:34.179Z,99832.46
2018-08-09T21:23:38.915Z,99840.31
2018-08-09T21:28:42.784Z,99844.12
2018-08-09T21:33:46.841Z,99847.50
2018-08-09T21:38:50.843Z,99859.40
2018-08-09T21:43:54.856Z,99862.63
2018-08-09T21:48:58.938Z,99871.30
2018-08-09T21:54:03.232Z,99880.28
2018-08-09T21:59:07.138Z,99890.87
2018-08-09T22:04:11.206Z,99888.95
2018-08-09T22:11:22.409Z,99888.11
2018-08-09T22:16:31.469Z,99893.25
2018-08-09T22:21:40.980Z,99905.83
2018-08-09T22:26:45.769Z,99912.98
2018-08-09T22:31:49.801Z,99931.30
2018-08-09T22:36:53.872Z,99932.16
2018-08-09T22:41:58.334Z,99951.71
2018-08-09T22:47:02.477Z,99967.53
2018-08-09T22:52:06.522Z,99980.67
2018-08-09T22:57:10.407Z,99980.33
2018-08-09T23:02:14.221Z,99994.70
2018-08-09T23:07:18.087Z,99998.65
2018-08-09T23:12:21.993Z,99996.85
2018-08-09T23:17:25.831Z,100003.89
2018-08-09T23:22:29.765Z,100002.07
2018-08-09T23:27:33.650Z,100011.09
2018-08-09T23:32:37.597Z,100017.66
2018-08-09T23:37:41.481Z,100012.55
2018-08-09T23:42:45.414Z,100019.34
2018-08-09T23:47:49.245Z,100026.15
2018-08-09T23:52:53.059Z,100023.94
2018-08-09T23:57:56.889Z,100027.92
